createdAt,value
2019-05-17T00:00:12.990Z,90.77
2019-05-17T00:02:39.727Z,91.44
2019-05-17T00:05:06.895Z,90.72
2019-05-17T00:07:33.178Z,91.40
2019-05-17T00:09:59.894Z,91.78
2019-05-17T00:12:27.094Z,91.32
2019-05-17T00:14:53.365Z,91.72
2019-05-17T00:17:20.100Z,91.29
2019-05-17T00:19:46.850Z,90.86
2019-05-17T00:22:13.589Z,91.51
2019-05-17T00:24:40.313Z,90.81
2019-05-17T00:27:07.042Z,90.77
2019-05-17T00:29:34.170Z,90.96
2019-05-17T00:32:00.895Z,91.53
2019-05-17T00:34:27.633Z,91.71
2019-05-17T00:36:54.355Z,91.38
2019-05-17T00:39:21.090Z,91.92
2019-05-17T00:41:47.827Z,91.12
2019-05-17T00:44:16.595Z,91.13
2019-05-17T00:46:41.318Z,91.24
2019-05-17T00:49:08.062Z,92.35
2019-05-17T00:51:36.887Z,92.26
2019-05-17T00:54:01.652Z,91.24
2019-05-17T00:56:28.377Z,91.23
2019-05-17T00:58:56.828Z,91.35
2019-05-17T01:01:21.869Z,91.35
2019-05-17T01:03:48.630Z,92.14
2019-05-17T01:06:16.971Z,92.54
2019-05-17T01:08:42.122Z,93.51
2019-05-17T01:11:08.911Z,93.23
2019-05-17T01:13:37.497Z,94.55
2019-05-17T01:16:02.386Z,93.85
2019-05-17T01:18:29.122Z,94.44
2019-05-17T01:20:56.760Z,93.51
2019-05-17T01:23:22.587Z,94.26
2019-05-17T01:25:49.326Z,93.95
2019-05-17T01:28:16.443Z,94.49
2019-05-17T01:30:42.898Z,94.13
2019-05-17T01:33:09.626Z,94.42
2019-05-17T01:35:37.387Z,94.99
2019-05-17T01:38:03.250Z,94.40
2019-05-17T01:40:29.990Z,95.59
2019-05-17T01:42:58.137Z,95.06
2019-05-17T01:45:23.446Z,95.03
2019-05-17T01:47:50.166Z,94.97
2019-05-17T01:50:17.468Z,94.94
2019-05-17T01:52:45.865Z,95.18
2019-05-17T01:55:10.498Z,95.63
2019-05-17T01:57:37.343Z,96.10
2019-05-17T02:00:06.370Z,95.79
2019-05-17T02:02:36.459Z,96.23
2019-05-17T02:05:00.762Z,95.75
2019-05-17T02:07:27.526Z,95.73
2019-05-17T02:09:56.700Z,96.25
2019-05-17T02:12:20.982Z,95.73
2019-05-17T02:14:47.734Z,96.98
2019-05-17T02:17:14.460Z,95.81
2019-05-17T02:19:41.187Z,95.11
2019-05-17T02:22:08.034Z,95.80
2019-05-17T02:24:36.894Z,95.39
2019-05-17T02:27:01.505Z,96.07
2019-05-17T02:29:28.244Z,96.95
2019-05-17T02:31:55.019Z,97.06
2019-05-17T02:34:23.242Z,96.47
2019-05-17T02:36:48.494Z,98.11
2019-05-17T02:39:15.221Z,98.12
2019-05-17T02:41:42.971Z,98.93
2019-05-17T02:44:08.697Z,99.27
2019-05-17T02:46:35.481Z,98.87
2019-05-17T02:49:02.988Z,97.60
2019-05-17T02:51:28.931Z,96.06
2019-05-17T02:53:55.668Z,98.37
2019-05-17T02:56:23.219Z,97.88
2019-05-17T02:58:49.160Z,98.47
2019-05-17T03:01:15.931Z,96.37
2019-05-17T03:03:43.625Z,95.90
2019-05-17T03:06:09.395Z,97.03
2019-05-17T03:08:36.123Z,97.39
2019-05-17T03:11:03.562Z,97.80
2019-05-17T03:13:32.794Z,98.21
2019-05-17T03:15:56.652Z,97.31
2019-05-17T03:18:23.373Z,98.10
2019-05-17T03:20:52.526Z,98.89
2019-05-17T03:23:16.949Z,99.30
2019-05-17T03:25:44.100Z,98.88
2019-05-17T03:28:13.202Z,100.00
2019-05-17T03:30:38.142Z,99.96
2019-05-17T03:33:07.654Z,100.00
2019-05-17T03:35:37.755Z,100.00
2019-05-17T03:37:58.419Z,100.00
2019-05-17T03:40:56.520Z,100.00
2019-05-17T03:42:53.870Z,100.00
2019-05-17T03:45:18.730Z,100.00
2019-05-17T03:47:45.665Z,100.00
2019-05-17T03:50:13.456Z,100.00
2019-05-17T03:52:39.195Z,100.00
2019-05-17T03:55:05.913Z,99.88
2019-05-17T03:57:32.653Z,98.86
2019-05-17T04:00:03.498Z,100.00
2019-05-17T04:02:26.318Z,100.00
2019-05-17T04:04:53.294Z,100.00
2019-05-17T04:07:23.366Z,100.00
2019-05-17T04:09:46.589Z,100.00
2019-05-17T04:12:13.736Z,100.00
2019-05-17T04:14:42.827Z,100.00
2019-05-17T04:17:06.865Z,100.00
2019-05-17T04:19:33.848Z,100.00
2019-05-17T04:22:03.487Z,99.58
2019-05-17T04:24:27.036Z,98.87
2019-05-17T04:26:53.767Z,98.85
2019-05-17T04:29:22.673Z,98.88
2019-05-17T04:31:47.491Z,99.08
2019-05-17T04:34:14.765Z,98.07
2019-05-17T04:36:43.155Z,98.38
2019-05-17T04:39:08.251Z,98.38
2019-05-17T04:41:45.145Z,97.23
2019-05-17T04:44:02.709Z,97.73
2019-05-17T04:46:28.766Z,97.95
2019-05-17T04:48:55.501Z,96.08
2019-05-17T04:51:23.250Z,96.47
2019-05-17T04:53:52.725Z,95.54
2019-05-17T04:56:15.922Z,95.52
2019-05-17T04:58:43.060Z,95.30
2019-05-17T05:01:12.907Z,95.13
2019-05-17T05:03:36.139Z,95.79
2019-05-17T05:06:03.420Z,94.92
2019-05-17T05:08:32.771Z,95.28
2019-05-17T05:10:56.387Z,94.61
2019-05-17T05:13:23.132Z,92.79
2019-05-17T05:15:52.035Z,92.56
2019-05-17T05:18:16.592Z,93.48
2019-05-17T05:20:43.912Z,92.37
2019-05-17T05:23:12.130Z,92.68
2019-05-17T05:25:36.800Z,93.40
2019-05-17T05:28:03.522Z,93.22
2019-05-17T05:30:32.042Z,92.56
2019-05-17T05:32:57.027Z,91.79
2019-05-17T05:35:23.758Z,90.99
2019-05-17T05:37:52.489Z,90.20
2019-05-17T05:40:17.258Z,90.18
2019-05-17T05:42:43.990Z,89.54
2019-05-17T05:45:12.119Z,88.81
2019-05-17T05:47:37.462Z,87.78
2019-05-17T05:50:04.414Z,87.08
2019-05-17T05:52:32.440Z,86.21
2019-05-17T05:54:58.084Z,86.63
2019-05-17T05:57:24.818Z,87.56
2019-05-17T05:59:51.897Z,85.26
2019-05-17T06:02:18.267Z,85.77
2019-05-17T06:04:44.998Z,86.95
2019-05-17T06:07:12.865Z,85.43
2019-05-17T06:09:38.550Z,85.89
2019-05-17T06:12:05.342Z,86.26
2019-05-17T06:14:32.450Z,84.33
2019-05-17T06:16:58.913Z,83.42
2019-05-17T06:19:25.639Z,82.80
2019-05-17T06:21:52.381Z,80.97
2019-05-17T06:24:19.103Z,81.80
2019-05-17T06:26:45.837Z,81.21
2019-05-17T06:29:12.577Z,81.25
2019-05-17T06:31:39.409Z,80.73
2019-05-17T06:34:06.135Z,79.61
2019-05-17T06:36:33.028Z,77.23
2019-05-17T06:39:02.101Z,78.64
2019-05-17T06:41:26.337Z,78.27
2019-05-17T06:43:53.058Z,78.29
2019-05-17T06:46:21.972Z,79.17
2019-05-17T06:48:46.643Z,77.90
2019-05-17T06:51:13.369Z,77.11
2019-05-17T06:53:40.117Z,77.39
2019-05-17T06:56:06.846Z,77.69
2019-05-17T06:58:33.569Z,77.07
2019-05-17T07:01:00.333Z,77.09
2019-05-17T07:03:29.345Z,75.47
2019-05-17T07:05:54.258Z,75.33
2019-05-17T07:08:20.982Z,75.33
2019-05-17T07:10:50.110Z,76.75
2019-05-17T07:13:14.458Z,76.69
2019-05-17T07:15:47.298Z,75.60
2019-05-17T07:18:10.156Z,74.44
2019-05-17T07:20:34.643Z,73.19
2019-05-17T07:23:01.423Z,72.16
2019-05-17T07:25:30.221Z,72.36
2019-05-17T07:27:54.891Z,73.26
2019-05-17T07:30:21.615Z,72.90
2019-05-17T07:32:49.799Z,71.93
2019-05-17T07:35:15.074Z,71.47
2019-05-17T07:37:41.915Z,70.99
2019-05-17T07:40:10.876Z,71.59
2019-05-17T07:42:35.370Z,70.72
2019-05-17T07:45:02.286Z,71.56
2019-05-17T07:47:29.441Z,71.34
2019-05-17T07:49:55.796Z,70.42
2019-05-17T07:52:22.538Z,70.03
2019-05-17T07:54:50.831Z,70.34
2019-05-17T07:57:16.010Z,69.04
2019-05-17T07:59:42.746Z,69.38
2019-05-17T08:02:10.645Z,70.72
2019-05-17T08:04:36.214Z,69.46
2019-05-17T08:07:02.933Z,67.61
2019-05-17T08:09:30.167Z,67.01
2019-05-17T08:11:56.395Z,68.81
2019-05-17T08:14:29.958Z,67.39
2019-05-17T08:16:50.229Z,66.66
2019-05-17T08:19:16.599Z,66.59
2019-05-17T08:21:43.318Z,63.74
2019-05-17T08:24:10.398Z,65.10
2019-05-17T08:26:36.778Z,64.84
2019-05-17T08:29:03.526Z,64.67
2019-05-17T08:31:30.231Z,65.34
2019-05-17T08:33:56.982Z,61.69
2019-05-17T08:36:23.700Z,61.08
2019-05-17T08:38:50.442Z,62.77
2019-05-17T08:41:17.165Z,62.99
2019-05-17T08:43:47.010Z,60.85
2019-05-17T08:46:10.724Z,62.73
2019-05-17T08:48:37.390Z,61.59
2019-05-17T08:51:04.110Z,62.41
2019-05-17T08:53:30.857Z,60.61
2019-05-17T08:55:57.592Z,59.89
2019-05-17T08:58:24.294Z,61.93
2019-05-17T09:00:51.041Z,61.78
2019-05-17T09:03:19.589Z,61.72
2019-05-17T09:05:44.531Z,58.60
2019-05-17T09:08:11.247Z,59.42
2019-05-17T09:10:40.473Z,55.58
2019-05-17T09:13:04.734Z,57.51
2019-05-17T09:15:31.473Z,56.23
2019-05-17T09:18:00.183Z,55.81
2019-05-17T09:20:24.946Z,55.39
2019-05-17T09:22:51.679Z,54.51
2019-05-17T09:25:21.444Z,54.90
2019-05-17T09:27:45.338Z,55.45
2019-05-17T09:30:12.066Z,53.59
2019-05-17T09:32:40.528Z,55.39
2019-05-17T09:35:05.555Z,57.32
2019-05-17T09:37:32.283Z,54.06
2019-05-17T09:39:59.858Z,54.82
2019-05-17T09:42:25.754Z,54.67
2019-05-17T09:44:52.503Z,53.94
2019-05-17T09:47:20.606Z,53.49
2019-05-17T09:49:45.997Z,54.14
2019-05-17T09:52:12.722Z,57.02
2019-05-17T09:54:44.975Z,55.46
2019-05-17T09:57:06.193Z,54.55
2019-05-17T09:59:32.925Z,55.14
2019-05-17T10:02:00.111Z,54.21
2019-05-17T10:04:26.383Z,53.31
2019-05-17T10:06:53.134Z,50.08
2019-05-17T10:09:19.866Z,53.67
2019-05-17T10:11:46.633Z,52.07
2019-05-17T10:14:24.588Z,52.95
2019-05-17T10:16:40.199Z,51.90
2019-05-17T10:19:09.445Z,51.87
2019-05-17T10:21:33.683Z,50.79
2019-05-17T10:24:00.463Z,50.29
2019-05-17T10:26:30.193Z,53.08
2019-05-17T10:28:53.967Z,50.95
2019-05-17T10:31:20.729Z,51.94
2019-05-17T10:33:49.364Z,50.96
2019-05-17T10:36:14.222Z,51.18
2019-05-17T10:38:40.953Z,51.89
2019-05-17T10:41:09.965Z,49.63
2019-05-17T10:43:34.446Z,51.20
2019-05-17T10:46:01.191Z,50.99
2019-05-17T10:48:29.996Z,50.13
2019-05-17T10:50:54.677Z,47.90
2019-05-17T10:53:21.403Z,46.96
2019-05-17T10:55:49.812Z,50.27
2019-05-17T10:58:14.890Z,51.11
2019-05-17T11:00:41.734Z,48.63
2019-05-17T11:03:09.803Z,46.33
2019-05-17T11:05:35.097Z,47.90
2019-05-17T11:08:01.838Z,51.09
2019-05-17T11:10:28.606Z,51.78
2019-05-17T11:12:55.343Z,51.56
2019-05-17T11:15:22.086Z,49.46
2019-05-17T11:17:48.797Z,49.38
2019-05-17T11:20:15.572Z,50.23
2019-05-17T11:22:42.293Z,46.54
2019-05-17T11:25:09.036Z,49.64
2019-05-17T11:27:35.788Z,49.53
2019-05-17T11:30:02.538Z,51.73
2019-05-17T11:32:29.312Z,50.68
2019-05-17T11:34:56.030Z,49.29
2019-05-17T11:37:22.835Z,50.04
2019-05-17T11:39:49.602Z,49.59
2019-05-17T11:42:17.299Z,47.80
2019-05-17T11:44:44.034Z,48.40
2019-05-17T11:47:10.867Z,48.68
2019-05-17T11:49:37.604Z,47.79
2019-05-17T11:52:04.349Z,48.62
2019-05-17T11:54:32.270Z,47.47
2019-05-17T11:56:59.044Z,44.73
2019-05-17T11:59:25.745Z,46.54
2019-05-17T12:01:52.614Z,45.56
2019-05-17T12:04:19.346Z,44.78
2019-05-17T12:06:46.086Z,44.41
2019-05-17T12:09:12.831Z,43.80
2019-05-17T12:11:39.658Z,43.47
2019-05-17T12:14:06.407Z,44.35
2019-05-17T12:16:33.134Z,44.68
2019-05-17T12:18:59.954Z,45.83
2019-05-17T12:21:26.704Z,48.31
2019-05-17T12:23:53.450Z,47.14
2019-05-17T12:26:20.191Z,46.10
2019-05-17T12:28:47.059Z,48.55
2019-05-17T12:31:13.814Z,47.46
2019-05-17T12:33:40.595Z,46.55
2019-05-17T12:36:07.589Z,47.25
2019-05-17T12:38:34.310Z,45.48
2019-05-17T12:41:01.055Z,43.32
2019-05-17T12:43:27.875Z,42.63
2019-05-17T12:46:00.799Z,42.63
2019-05-17T12:48:21.400Z,46.10
2019-05-17T12:50:48.207Z,47.63
2019-05-17T12:53:14.975Z,47.99
2019-05-17T12:55:41.798Z,48.72
2019-05-17T12:58:08.581Z,47.13
2019-05-17T13:00:35.386Z,49.01
2019-05-17T13:03:02.255Z,48.54
2019-05-17T13:05:28.982Z,47.90
2019-05-17T13:07:55.797Z,47.57
2019-05-17T13:10:22.636Z,45.81
2019-05-17T13:12:49.394Z,46.79
2019-05-17T13:15:16.135Z,47.89
2019-05-17T13:17:42.979Z,48.08
2019-05-17T13:20:09.713Z,47.91
2019-05-17T13:22:36.486Z,46.52
2019-05-17T13:25:04.376Z,46.36
2019-05-17T13:27:31.126Z,48.28
2019-05-17T13:29:57.882Z,48.72
2019-05-17T13:32:24.642Z,44.93
2019-05-17T13:34:51.474Z,44.62
2019-05-17T13:37:18.214Z,45.55
2019-05-17T13:39:44.958Z,45.63
2019-05-17T13:42:11.802Z,44.27
2019-05-17T13:44:38.527Z,45.04
2019-05-17T13:47:05.275Z,45.83
2019-05-17T13:49:32.019Z,45.89
2019-05-17T13:51:58.876Z,44.61
2019-05-17T13:54:25.607Z,43.38
2019-05-17T13:56:52.348Z,42.67
2019-05-17T13:59:19.082Z,43.97
2019-05-17T14:01:45.959Z,42.68
2019-05-17T14:04:12.771Z,43.07
2019-05-17T14:06:39.539Z,43.68
2019-05-17T14:09:06.296Z,46.40
2019-05-17T14:11:33.050Z,44.06
2019-05-17T14:13:59.854Z,44.45
2019-05-17T14:16:26.575Z,44.69
2019-05-17T14:18:53.313Z,45.74
2019-05-17T14:21:20.185Z,43.43
2019-05-17T14:23:47.083Z,44.23
2019-05-17T14:26:13.833Z,44.24
2019-05-17T14:28:40.579Z,42.65
2019-05-17T14:31:07.431Z,44.60
2019-05-17T14:33:34.153Z,43.71
2019-05-17T14:36:00.928Z,42.40
2019-05-17T14:38:27.743Z,41.53
2019-05-17T14:41:09.901Z,41.57
2019-05-17T14:43:21.334Z,42.72
2019-05-17T14:45:48.076Z,41.56
2019-05-17T14:48:14.818Z,42.91
2019-05-17T14:50:41.564Z,42.13
2019-05-17T14:53:08.409Z,40.97
2019-05-17T14:55:35.139Z,41.83
2019-05-17T14:58:02.006Z,39.25
2019-05-17T15:00:28.748Z,40.37
2019-05-17T15:02:55.482Z,40.71
2019-05-17T15:05:22.200Z,42.04
2019-05-17T15:07:48.938Z,42.67
2019-05-17T15:10:15.769Z,39.96
2019-05-17T15:12:42.627Z,40.83
2019-05-17T15:15:09.364Z,40.81
2019-05-17T15:17:36.896Z,40.89
2019-05-17T15:20:03.667Z,42.91
2019-05-17T15:22:30.510Z,41.38
2019-05-17T15:24:57.386Z,40.63
2019-05-17T15:27:24.196Z,40.33
2019-05-17T15:29:51.031Z,40.39
2019-05-17T15:32:17.758Z,41.10
2019-05-17T15:34:44.514Z,40.20
2019-05-17T15:37:11.307Z,40.07
2019-05-17T15:39:38.022Z,43.02
2019-05-17T15:42:04.734Z,41.55
2019-05-17T15:44:31.477Z,40.00
2019-05-17T15:46:58.225Z,40.71
2019-05-17T15:49:24.968Z,39.76
2019-05-17T15:51:51.690Z,38.95
2019-05-17T15:54:18.430Z,42.79
2019-05-17T15:56:45.165Z,42.13
2019-05-17T15:59:11.908Z,38.32
2019-05-17T16:01:38.852Z,40.49
2019-05-17T16:04:05.361Z,40.89
2019-05-17T16:06:32.083Z,41.45
2019-05-17T16:08:58.871Z,41.26
2019-05-17T16:11:25.590Z,40.73
2019-05-17T16:13:52.318Z,40.88
2019-05-17T16:16:19.053Z,40.55
2019-05-17T16:18:45.782Z,40.05
2019-05-17T16:21:12.519Z,39.41
2019-05-17T16:23:39.358Z,38.21
2019-05-17T16:26:06.088Z,38.82
2019-05-17T16:28:32.840Z,37.53
2019-05-17T16:30:59.609Z,37.77
2019-05-17T16:33:26.339Z,38.75
2019-05-17T16:35:53.066Z,39.38
2019-05-17T16:38:19.807Z,40.26
2019-05-17T16:40:46.528Z,36.58
2019-05-17T16:43:18.100Z,37.53
2019-05-17T16:45:40.077Z,38.29
2019-05-17T16:48:06.830Z,39.20
2019-05-17T16:50:33.574Z,39.58
2019-05-17T16:53:05.913Z,38.27
2019-05-17T16:55:27.139Z,37.98
2019-05-17T16:57:53.858Z,37.67
2019-05-17T17:00:24.401Z,36.82
2019-05-17T17:02:51.123Z,37.78
2019-05-17T17:05:17.906Z,38.23
2019-05-17T17:07:44.623Z,37.49
2019-05-17T17:10:11.364Z,37.85
2019-05-17T17:12:38.111Z,39.33
2019-05-17T17:15:04.875Z,37.10
2019-05-17T17:17:31.593Z,36.96
2019-05-17T17:19:58.355Z,34.38
2019-05-17T17:22:25.084Z,36.21
2019-05-17T17:24:51.814Z,35.52
2019-05-17T17:27:18.532Z,35.86
2019-05-17T17:29:45.269Z,36.32
2019-05-17T17:32:21.253Z,36.17
2019-05-17T17:34:38.731Z,37.63
2019-05-17T17:37:05.471Z,36.33
2019-05-17T17:39:32.190Z,36.20
2019-05-17T17:41:58.933Z,35.68
2019-05-17T17:44:25.825Z,36.40
2019-05-17T17:46:52.550Z,37.59
2019-05-17T17:49:19.290Z,38.19
2019-05-17T17:51:46.007Z,38.34
2019-05-17T17:54:12.742Z,39.52
2019-05-17T17:56:39.454Z,39.13
2019-05-17T17:59:06.231Z,38.71
2019-05-17T18:01:32.930Z,37.59
2019-05-17T18:03:59.659Z,36.52
2019-05-17T18:06:26.418Z,37.16
2019-05-17T18:08:53.154Z,38.60
2019-05-17T18:11:19.889Z,36.19
2019-05-17T18:13:46.605Z,38.43
2019-05-17T18:16:13.361Z,39.06
2019-05-17T18:18:40.102Z,42.33
2019-05-17T18:21:06.829Z,42.88
2019-05-17T18:23:33.575Z,44.35
2019-05-17T18:26:00.298Z,45.42
2019-05-17T18:28:27.051Z,45.45
2019-05-17T18:30:53.781Z,47.58
2019-05-17T18:33:20.522Z,42.77
2019-05-17T18:35:47.254Z,42.89
2019-05-17T18:38:14.010Z,48.53
2019-05-17T18:40:40.762Z,47.21
2019-05-17T18:43:07.477Z,46.99
2019-05-17T18:45:34.218Z,48.48
2019-05-17T18:48:00.958Z,48.24
2019-05-17T18:50:27.982Z,49.73
2019-05-17T18:52:55.001Z,50.81
2019-05-17T18:55:21.487Z,51.39
2019-05-17T18:57:48.233Z,51.89
2019-05-17T19:00:14.987Z,52.54
2019-05-17T19:02:41.721Z,53.46
2019-05-17T19:05:08.488Z,53.46
2019-05-17T19:07:35.207Z,52.97
2019-05-17T19:10:02.005Z,54.58
2019-05-17T19:12:28.726Z,55.20
2019-05-17T19:14:55.478Z,55.49
2019-05-17T19:17:22.187Z,55.46
2019-05-17T19:19:48.948Z,55.69
2019-05-17T19:22:15.666Z,55.40
2019-05-17T19:24:42.431Z,56.08
2019-05-17T19:27:09.166Z,56.52
2019-05-17T19:29:35.910Z,58.38
2019-05-17T19:32:02.640Z,56.44
2019-05-17T19:34:29.370Z,56.53
2019-05-17T19:36:56.090Z,58.73
2019-05-17T19:39:22.826Z,59.59
2019-05-17T19:41:49.586Z,61.24
2019-05-17T19:44:16.481Z,61.62
2019-05-17T19:46:43.222Z,61.82
2019-05-17T19:49:09.968Z,64.25
2019-05-17T19:51:36.708Z,66.26
2019-05-17T19:54:03.436Z,66.74
2019-05-17T19:56:30.182Z,66.29
2019-05-17T19:58:56.921Z,64.56
2019-05-17T20:01:23.686Z,64.92
2019-05-17T20:03:50.422Z,65.50
2019-05-17T20:06:17.187Z,65.24
2019-05-17T20:08:43.906Z,66.24
2019-05-17T20:11:10.684Z,65.91
2019-05-17T20:13:37.402Z,66.62
2019-05-17T20:16:04.166Z,65.09
2019-05-17T20:18:30.927Z,65.99
2019-05-17T20:20:57.694Z,66.14
2019-05-17T20:23:24.418Z,65.39
2019-05-17T20:25:51.168Z,66.22
2019-05-17T20:28:17.887Z,65.30
2019-05-17T20:30:44.666Z,65.75
2019-05-17T20:33:11.390Z,66.11
2019-05-17T20:35:38.130Z,65.99
2019-05-17T20:38:04.854Z,65.68
2019-05-17T20:40:31.602Z,65.08
2019-05-17T20:42:58.330Z,65.23
2019-05-17T20:45:33.318Z,66.26
2019-05-17T20:47:51.806Z,66.21
2019-05-17T20:50:18.538Z,66.38
2019-05-17T20:52:45.267Z,65.33
2019-05-17T20:55:12.018Z,66.30
2019-05-17T20:57:38.742Z,65.98
2019-05-17T21:00:05.620Z,67.35
2019-05-17T21:02:32.346Z,65.70
2019-05-17T21:04:59.086Z,64.88
2019-05-17T21:07:25.815Z,66.02
2019-05-17T21:09:52.542Z,65.81
2019-05-17T21:12:19.282Z,64.52
2019-05-17T21:14:46.001Z,65.65
2019-05-17T21:17:12.721Z,64.55
2019-05-17T21:19:39.445Z,65.26
2019-05-17T21:22:06.191Z,66.10
2019-05-17T21:24:32.939Z,66.00
2019-05-17T21:26:59.734Z,65.76
2019-05-17T21:29:26.433Z,65.63
2019-05-17T21:31:53.179Z,65.53
2019-05-17T21:34:19.910Z,65.48
2019-05-17T21:36:46.658Z,66.50
2019-05-17T21:39:13.397Z,65.49
2019-05-17T21:41:40.150Z,65.78
2019-05-17T21:44:06.878Z,66.09
2019-05-17T21:46:33.625Z,66.88
2019-05-17T21:49:00.350Z,66.86
2019-05-17T21:51:27.222Z,67.39
2019-05-17T21:53:53.975Z,66.70
2019-05-17T21:56:20.730Z,66.48
2019-05-17T21:58:47.448Z,66.11
2019-05-17T22:01:15.822Z,68.23
2019-05-17T22:03:42.538Z,67.92
2019-05-17T22:06:09.295Z,69.04
2019-05-17T22:08:36.044Z,69.00
2019-05-17T22:11:02.766Z,68.58
2019-05-17T22:13:29.599Z,67.48
2019-05-17T22:15:56.334Z,69.06
2019-05-17T22:18:23.078Z,70.19
2019-05-17T22:20:49.817Z,69.93
2019-05-17T22:23:16.562Z,71.19
2019-05-17T22:25:43.295Z,72.51
2019-05-17T22:28:10.031Z,69.65
2019-05-17T22:30:36.766Z,70.90
2019-05-17T22:33:03.522Z,71.19
2019-05-17T22:35:30.246Z,72.46
2019-05-17T22:37:57.010Z,72.88
2019-05-17T22:40:23.740Z,74.07
2019-05-17T22:42:50.487Z,73.84
2019-05-17T22:45:17.211Z,75.11
2019-05-17T22:47:44.012Z,75.39
2019-05-17T22:50:10.699Z,76.50
2019-05-17T22:52:37.442Z,77.34
2019-05-17T22:55:04.218Z,80.38
2019-05-17T22:57:30.954Z,80.95
2019-05-17T22:59:57.753Z,79.22
2019-05-17T23:02:24.503Z,82.62
2019-05-17T23:04:51.226Z,83.79
2019-05-17T23:07:17.981Z,86.41
2019-05-17T23:09:44.698Z,86.42
2019-05-17T23:12:11.442Z,87.32
2019-05-17T23:14:38.182Z,87.45
2019-05-17T23:17:04.925Z,87.58
2019-05-17T23:19:31.650Z,87.04
2019-05-17T23:21:58.386Z,86.97
2019-05-17T23:24:25.174Z,87.17
2019-05-17T23:26:51.921Z,87.87
2019-05-17T23:29:18.645Z,84.90
2019-05-17T23:31:45.421Z,86.71
2019-05-17T23:34:12.149Z,87.03
2019-05-17T23:36:38.874Z,85.91
2019-05-17T23:39:05.994Z,83.96
2019-05-17T23:41:32.715Z,85.20
2019-05-17T23:43:59.457Z,85.65
2019-05-17T23:46:26.185Z,85.36
2019-05-17T23:48:52.926Z,86.26
2019-05-17T23:51:19.645Z,85.97
2019-05-17T23:53:46.403Z,84.98
2019-05-17T23:56:13.173Z,85.35
2019-05-17T23:58:39.927Z,84.72
